createdAt,value
2023-03-03T00:00:05.566Z,2.37
2023-03-03T00:05:28.542Z,2.47
2023-03-03T00:10:51.543Z,2.20
2023-03-03T00:16:23.644Z,2.80
2023-03-03T00:21:47.560Z,2.60
2023-03-03T00:27:24.618Z,3.00
2023-03-03T00:32:57.562Z,2.60
2023-03-03T00:38:24.555Z,2.50
2023-03-03T00:43:50.647Z,2.70
2023-03-03T00:49:37.550Z,2.87
2023-03-03T00:55:00.562Z,2.63
2023-03-03T01:00:25.580Z,2.60
2023-03-03T01:05:50.586Z,2.77
2023-03-03T01:11:18.569Z,3.00
2023-03-03T01:16:42.565Z,3.10
2023-03-03T01:22:09.576Z,2.90
2023-03-03T01:27:34.589Z,2.80
2023-03-03T01:32:57.596Z,2.50
2023-03-03T01:38:22.603Z,2.70
2023-03-03T01:43:58.594Z,3.50
2023-03-03T01:49:25.587Z,2.60
2023-03-03T01:54:53.584Z,2.87
2023-03-03T02:00:19.597Z,3.07
2023-03-03T02:05:43.643Z,2.47
2023-03-03T02:11:09.606Z,2.77
2023-03-03T02:16:32.633Z,2.87
2023-03-03T02:21:55.602Z,3.33
2023-03-03T02:27:20.611Z,2.90
2023-03-03T02:32:43.610Z,3.20
2023-03-03T02:38:07.626Z,3.47
2023-03-03T02:43:36.621Z,3.20
2023-03-03T02:48:59.602Z,3.20
2023-03-03T02:54:24.622Z,3.30
2023-03-03T02:59:50.639Z,3.50
2023-03-03T03:05:15.635Z,3.23
2023-03-03T03:10:38.630Z,3.43
2023-03-03T03:16:03.635Z,3.50
2023-03-03T03:21:28.610Z,4.03
2023-03-03T03:26:53.627Z,3.23
2023-03-03T03:32:19.709Z,4.27
2023-03-03T03:37:42.653Z,4.13
2023-03-03T03:43:21.692Z,4.23
2023-03-03T03:48:46.671Z,4.07
2023-03-03T03:54:17.767Z,3.80
2023-03-03T03:59:41.639Z,3.43
2023-03-03T04:05:06.648Z,4.07
2023-03-03T04:10:29.670Z,4.03
2023-03-03T04:15:54.000Z,4.30
2023-03-03T04:21:20.701Z,5.33
2023-03-03T04:26:46.691Z,5.90
2023-03-03T04:32:09.688Z,6.27
2023-03-03T04:37:34.729Z,7.03
2023-03-03T04:42:59.721Z,5.70
2023-03-03T04:48:22.715Z,6.10
2023-03-03T04:53:53.725Z,5.90
2023-03-03T04:59:17.717Z,6.67
2023-03-03T05:04:40.841Z,7.60
2023-03-03T05:10:05.712Z,5.47
2023-03-03T05:15:28.694Z,5.90
2023-03-03T05:20:51.718Z,5.70
2023-03-03T05:26:16.732Z,6.60
2023-03-03T05:31:40.754Z,6.43
2023-03-03T05:37:03.717Z,6.37
2023-03-03T05:42:28.780Z,6.33
2023-03-03T05:47:51.727Z,5.47
2023-03-03T05:53:14.731Z,6.27
2023-03-03T05:58:39.743Z,7.07
2023-03-03T06:04:02.758Z,7.37
2023-03-03T06:09:25.733Z,5.83
2023-03-03T06:14:50.711Z,5.40
2023-03-03T06:20:13.711Z,5.40
2023-03-03T06:25:36.745Z,5.77
2023-03-03T06:31:01.745Z,5.77
2023-03-03T06:36:24.715Z,4.07
2023-03-03T06:41:47.712Z,5.30
2023-03-03T06:47:12.726Z,5.07
2023-03-03T06:52:38.752Z,5.47
2023-03-03T06:58:02.736Z,5.20
2023-03-03T07:03:32.762Z,4.63
2023-03-03T07:08:56.730Z,4.57
2023-03-03T07:14:30.768Z,4.63
2023-03-03T07:19:56.759Z,5.10
2023-03-03T07:25:34.765Z,5.70
2023-03-03T07:30:58.035Z,4.20
2023-03-03T07:36:40.778Z,5.07
2023-03-03T07:42:16.773Z,4.60
2023-03-03T07:47:50.820Z,3.97
2023-03-03T07:53:28.780Z,4.73
2023-03-03T07:58:53.800Z,3.53
2023-03-03T08:04:31.897Z,3.73
2023-03-03T08:10:02.783Z,4.80
2023-03-03T08:15:29.956Z,4.13
2023-03-03T08:21:03.818Z,3.60
2023-03-03T08:26:29.789Z,3.90
2023-03-03T08:31:53.129Z,3.63
2023-03-03T08:37:15.787Z,3.50
2023-03-03T08:42:40.787Z,3.30
2023-03-03T08:48:06.042Z,3.30
2023-03-03T08:53:29.783Z,3.03
2023-03-03T08:59:03.377Z,4.10
2023-03-03T09:04:25.837Z,3.80
2023-03-03T09:09:48.799Z,3.40
2023-03-03T09:15:17.798Z,3.80
2023-03-03T09:20:43.807Z,2.93
2023-03-03T09:26:07.785Z,4.20
2023-03-03T09:31:35.826Z,3.77
2023-03-03T09:36:58.798Z,3.37
2023-03-03T09:42:56.832Z,4.10
2023-03-03T09:48:56.828Z,3.47
2023-03-03T09:54:41.833Z,3.50
2023-03-03T10:00:24.373Z,3.43
2023-03-03T10:06:01.851Z,3.27
2023-03-03T10:11:29.811Z,3.90
2023-03-03T10:17:06.833Z,2.93
2023-03-03T10:22:40.828Z,3.13
2023-03-03T10:28:18.832Z,3.63
2023-03-03T10:33:50.951Z,3.07
2023-03-03T10:39:33.859Z,3.83
2023-03-03T10:45:23.854Z,4.00
2023-03-03T10:50:56.850Z,4.23
2023-03-03T10:56:52.054Z,4.70
2023-03-03T11:02:21.843Z,4.53
2023-03-03T11:07:49.857Z,3.63
2023-03-03T11:13:24.852Z,3.67
2023-03-03T11:19:01.417Z,3.97
2023-03-03T11:24:33.887Z,4.00
2023-03-03T11:30:23.884Z,5.00
2023-03-03T11:35:53.968Z,3.83
2023-03-03T11:41:23.882Z,3.77
2023-03-03T11:46:53.905Z,3.33
2023-03-03T11:52:25.880Z,3.00
2023-03-03T11:57:53.907Z,3.03
2023-03-03T12:03:35.897Z,4.63
2023-03-03T12:09:19.915Z,2.60
2023-03-03T12:15:14.886Z,4.07
2023-03-03T12:20:47.876Z,4.20
2023-03-03T12:26:17.027Z,3.43
2023-03-03T12:31:51.044Z,3.60
2023-03-03T12:37:36.022Z,2.80
2023-03-03T12:43:13.030Z,2.70
2023-03-03T12:48:43.021Z,2.87
2023-03-03T12:54:36.886Z,3.03
2023-03-03T13:00:22.114Z,2.53
2023-03-03T13:05:55.033Z,2.90
2023-03-03T13:11:37.046Z,2.07
2023-03-03T13:17:06.074Z,2.40
2023-03-03T13:22:43.040Z,2.13
2023-03-03T13:28:15.058Z,2.23
2023-03-03T13:33:42.050Z,2.00
2023-03-03T13:39:09.045Z,1.80
2023-03-03T13:44:42.619Z,1.87
2023-03-03T13:50:19.063Z,2.13
2023-03-03T13:55:48.065Z,1.80
2023-03-03T14:01:18.135Z,1.93
2023-03-03T14:06:41.083Z,1.70
2023-03-03T14:12:09.061Z,2.30
2023-03-03T14:17:41.086Z,2.13
2023-03-03T14:23:08.082Z,1.93
2023-03-03T14:28:33.095Z,1.60
2023-03-03T14:34:01.108Z,1.60
2023-03-03T14:39:39.456Z,1.70
2023-03-03T14:45:27.268Z,1.90
2023-03-03T14:50:58.092Z,2.07
2023-03-03T14:56:35.103Z,1.63
2023-03-03T15:02:06.121Z,1.83
2023-03-03T15:07:43.122Z,1.67
2023-03-03T15:13:06.109Z,1.57
2023-03-03T15:18:29.113Z,1.47
2023-03-03T15:24:04.117Z,1.80
2023-03-03T15:29:32.107Z,1.80
2023-03-03T15:35:06.121Z,1.77
2023-03-03T15:40:40.141Z,1.40
2023-03-03T15:46:14.171Z,1.70
2023-03-03T15:52:03.187Z,1.80
2023-03-03T15:57:37.150Z,1.80
2023-03-03T16:03:07.159Z,1.90
2023-03-03T16:08:36.037Z,1.60
2023-03-03T16:14:13.025Z,1.73
2023-03-03T16:19:48.020Z,1.67
2023-03-03T16:25:25.035Z,1.63
2023-03-03T16:30:56.052Z,1.50
2023-03-03T16:36:27.051Z,1.70
2023-03-03T16:41:58.048Z,1.80
2023-03-03T16:47:48.055Z,1.60
2023-03-03T16:53:21.049Z,1.63
2023-03-03T16:58:54.069Z,1.80
2023-03-03T17:04:22.289Z,1.47
2023-03-03T17:10:05.050Z,1.60
2023-03-03T17:15:42.075Z,1.73
2023-03-03T17:21:16.044Z,1.80
2023-03-03T17:26:54.050Z,2.00
2023-03-03T17:32:30.102Z,1.50
2023-03-03T17:38:03.070Z,1.60
2023-03-03T17:43:32.077Z,1.87
2023-03-03T17:49:35.219Z,1.83
2023-03-03T17:55:36.095Z,1.80
2023-03-03T18:01:09.091Z,2.07
2023-03-03T18:06:59.103Z,1.90
2023-03-03T18:12:33.112Z,1.83
2023-03-03T18:18:17.086Z,1.77
2023-03-03T18:23:48.123Z,1.50
2023-03-03T18:29:43.190Z,1.73
2023-03-03T18:35:32.145Z,1.77
2023-03-03T18:41:06.133Z,2.07
2023-03-03T18:47:02.138Z,1.90
2023-03-03T18:52:33.125Z,1.67
2023-03-03T18:58:29.129Z,1.60
2023-03-03T19:04:30.158Z,1.90
2023-03-03T19:10:03.115Z,1.60
2023-03-03T19:15:58.275Z,1.77
2023-03-03T19:21:33.132Z,2.13
2023-03-03T19:27:38.152Z,2.13
2023-03-03T19:33:40.130Z,2.10
2023-03-03T19:39:49.139Z,2.10
2023-03-03T19:45:36.131Z,1.93
2023-03-03T19:51:40.219Z,3.83
2023-03-03T19:57:09.127Z,2.57
2023-03-03T20:02:48.145Z,2.13
2023-03-03T20:08:20.146Z,2.37
2023-03-03T20:14:00.177Z,2.10
2023-03-03T20:19:34.164Z,1.77
2023-03-03T20:25:21.174Z,1.97
2023-03-03T20:31:10.238Z,1.97
2023-03-03T20:36:43.216Z,1.97
2023-03-03T20:42:15.180Z,2.00
2023-03-03T20:47:52.194Z,1.73
2023-03-03T20:53:33.170Z,2.20
2023-03-03T20:59:43.435Z,1.90
2023-03-03T21:05:25.373Z,1.87
2023-03-03T21:11:31.196Z,2.00
2023-03-03T21:17:16.649Z,1.87
2023-03-03T21:22:53.197Z,1.70
2023-03-03T21:28:29.187Z,1.90
2023-03-03T21:39:46.188Z,2.63
2023-03-03T21:45:17.196Z,3.10
2023-03-03T21:50:42.367Z,3.97
2023-03-03T21:56:16.259Z,3.17
2023-03-03T22:01:40.297Z,3.57
2023-03-03T22:07:03.192Z,2.60
2023-03-03T22:12:28.240Z,2.23
2023-03-03T22:17:52.215Z,2.20
2023-03-03T22:23:15.246Z,2.43
2023-03-03T22:28:41.458Z,3.10
2023-03-03T22:34:05.244Z,2.27
2023-03-03T22:39:28.225Z,2.40
2023-03-03T22:44:53.232Z,2.30
2023-03-03T22:50:16.239Z,2.10
2023-03-03T22:55:46.263Z,2.30
2023-03-03T23:01:11.245Z,2.30
2023-03-03T23:06:34.255Z,2.00
2023-03-03T23:11:57.272Z,2.07
2023-03-03T23:17:22.239Z,2.07
2023-03-03T23:22:45.244Z,2.00
2023-03-03T23:28:09.260Z,1.90
2023-03-03T23:33:34.260Z,2.00
2023-03-03T23:38:57.247Z,2.20
2023-03-03T23:44:21.245Z,2.40
2023-03-03T23:49:46.272Z,1.73
2023-03-03T23:55:18.835Z,2.10
